Weather at Firule Heliport

Public forecast

Using degrees Celsius for public forecast. Weather courtesy of forecast.io.

Closest aviation weather report (METAR) to Firule Heliport

Closest report is Split Airport, 7.5 nm (13.8 km) WNW.

2024/05/24 06:00 (retrieved 30 minutes ago)

LDSP 240600Z VRB02KT CAVOK 20/14 Q1018 NOSIG

Closest aviation forecast (TAF) to Firule Heliport

Closest forecast is Split Airport, 7.5 nm (13.8 km) WNW.

2024/05/24 06:27 (retrieved 3 minutes ago)

TAF LDSP 240525Z 2406/2506 11004KT 9999 FEW050 TX25/2413Z TN15/2503Z BECMG 2408/2410 23012KT BECMG 2416/2418 31006KT